Alma, Arkansas
Current Conditions -  °F | °C
As of 11:53 PM on Saturday 25 Oct 2014 (Local Time) from KFSM Reporting Station
Haze Haze  
Wind Chill: 19°   Ceiling: Unl
Heat Index: 19°   Visibility: 5mi
Dew Point: 17°   Wind: 5mph
Humidity: 90%   Direction: 60°ENE
Pressure: 30.02"   Gusts: NA
Location:  35.48°N, 94.22°W
Report Text: KFSM 260453Z AUTO 06004KT 5SM BR CLR 19/17 A3002 RMK AO2 SLP162 T01890172
Loading
Personal Weather Stations






























Interactive Weather Map New forecast layout! Learn more

10-Day Weather Forecast

Advertisements
Track Severe Weather on mobile